createdAt,value
2024-02-29T00:02:17.457Z,6.36
2024-02-29T00:04:44.254Z,6.39
2024-02-29T00:07:10.925Z,6.40
2024-02-29T00:09:37.798Z,6.43
2024-02-29T00:12:05.302Z,6.46
2024-02-29T00:14:32.379Z,6.49
2024-02-29T00:17:01.598Z,6.50
2024-02-29T00:19:29.021Z,6.53
2024-02-29T00:21:55.749Z,6.52
2024-02-29T00:24:22.309Z,6.52
2024-02-29T00:26:49.161Z,6.54
2024-02-29T00:29:15.692Z,6.53
2024-02-29T00:31:46.068Z,6.55
2024-02-29T00:34:13.812Z,6.55
2024-02-29T00:36:40.894Z,6.57
2024-02-29T00:39:14.538Z,6.56
2024-02-29T00:41:41.887Z,6.56
2024-02-29T00:44:08.611Z,6.56
2024-02-29T00:46:38.568Z,6.56
2024-02-29T00:49:05.873Z,6.58
2024-02-29T00:51:32.752Z,6.57
2024-02-29T00:53:59.470Z,6.56
2024-02-29T00:56:26.409Z,6.58
2024-02-29T00:58:52.965Z,6.59
2024-02-29T01:01:19.672Z,6.57
2024-02-29T01:03:46.279Z,6.58
2024-02-29T01:06:12.898Z,6.58
2024-02-29T01:08:39.616Z,6.60
2024-02-29T01:11:06.654Z,6.61
2024-02-29T01:13:33.713Z,6.62
2024-02-29T01:16:00.325Z,6.64
2024-02-29T01:18:26.843Z,6.66
2024-02-29T01:20:53.941Z,6.66
2024-02-29T01:23:20.497Z,6.67
2024-02-29T01:25:47.099Z,6.68
2024-02-29T01:28:13.743Z,6.70
2024-02-29T01:30:40.338Z,6.70
2024-02-29T01:33:06.941Z,6.71
2024-02-29T01:35:33.673Z,6.72
2024-02-29T01:38:00.191Z,6.73
2024-02-29T01:40:26.718Z,6.75
2024-02-29T01:42:53.726Z,6.75
2024-02-29T01:45:20.342Z,6.74
2024-02-29T01:47:47.023Z,6.77
2024-02-29T01:50:16.719Z,6.79
2024-02-29T01:52:45.414Z,6.79
2024-02-29T01:55:12.809Z,6.82
2024-02-29T01:57:40.382Z,6.82
2024-02-29T02:00:09.532Z,6.83
2024-02-29T02:02:39.071Z,6.84
2024-02-29T02:05:09.250Z,6.87
2024-02-29T02:07:40.889Z,6.88
2024-02-29T02:10:09.459Z,6.90
2024-02-29T02:12:36.599Z,6.92
2024-02-29T02:15:04.364Z,6.92
2024-02-29T02:17:32.915Z,6.93
2024-02-29T02:20:01.328Z,6.95
2024-02-29T02:22:28.983Z,6.95
2024-02-29T02:24:55.548Z,6.96
2024-02-29T02:27:22.431Z,6.97
2024-02-29T02:29:48.974Z,6.98
2024-02-29T02:32:15.536Z,6.99
2024-02-29T02:34:42.058Z,7.00
2024-02-29T02:37:08.766Z,7.00
2024-02-29T02:39:35.391Z,7.00
2024-02-29T02:42:02.422Z,7.01
2024-02-29T02:44:29.276Z,7.03
2024-02-29T02:46:55.802Z,7.03
2024-02-29T02:49:24.457Z,7.02
2024-02-29T02:51:51.015Z,7.05
2024-02-29T02:54:17.572Z,7.05
2024-02-29T02:56:44.068Z,7.06
2024-02-29T02:59:10.620Z,7.06
2024-02-29T03:01:38.179Z,7.07
2024-02-29T03:04:08.040Z,7.08
2024-02-29T03:06:34.666Z,7.09
2024-02-29T03:09:01.250Z,7.11
2024-02-29T03:11:27.842Z,7.11
2024-02-29T03:13:54.635Z,7.11
2024-02-29T03:16:23.626Z,7.10
2024-02-29T03:18:50.592Z,7.09
2024-02-29T03:21:17.194Z,7.07
2024-02-29T03:23:43.779Z,7.09
2024-02-29T03:26:10.507Z,7.10
2024-02-29T03:28:37.062Z,7.10
2024-02-29T03:31:05.068Z,7.08
2024-02-29T03:33:31.958Z,7.09
2024-02-29T03:35:58.558Z,7.09
2024-02-29T03:38:25.095Z,7.05
2024-02-29T03:40:53.173Z,7.03
2024-02-29T03:43:19.875Z,7.01
2024-02-29T03:45:46.528Z,7.00
2024-02-29T03:48:13.170Z,6.99
2024-02-29T03:50:39.727Z,6.95
2024-02-29T03:53:06.364Z,6.89
2024-02-29T03:55:33.185Z,6.90
2024-02-29T03:57:59.951Z,6.87
2024-02-29T04:00:26.980Z,6.85
2024-02-29T04:02:53.512Z,6.83
2024-02-29T04:05:25.098Z,6.80
2024-02-29T04:07:54.495Z,6.79
2024-02-29T04:10:21.119Z,6.78
2024-02-29T04:12:47.675Z,6.76
2024-02-29T04:15:14.330Z,6.75
2024-02-29T04:17:40.865Z,6.75
2024-02-29T04:20:09.761Z,6.73
2024-02-29T04:22:36.537Z,6.70
2024-02-29T04:25:03.229Z,6.71
2024-02-29T04:27:29.775Z,6.73
2024-02-29T04:29:56.257Z,6.71
2024-02-29T04:32:22.822Z,6.70
2024-02-29T04:34:49.359Z,6.68
2024-02-29T04:37:16.074Z,6.67
2024-02-29T04:39:42.867Z,6.68
2024-02-29T04:42:09.468Z,6.66
2024-02-29T04:44:36.011Z,6.67
2024-02-29T04:47:02.612Z,6.66
2024-02-29T04:49:29.153Z,6.67
2024-02-29T04:51:55.921Z,6.68
2024-02-29T04:54:22.484Z,6.66
2024-02-29T04:56:49.230Z,6.68
2024-02-29T04:59:15.708Z,6.68
2024-02-29T05:01:42.305Z,6.69
2024-02-29T05:04:08.944Z,6.72
2024-02-29T05:06:35.553Z,6.72
2024-02-29T05:09:02.105Z,6.71
2024-02-29T05:11:28.758Z,6.72
2024-02-29T05:13:55.448Z,6.75
2024-02-29T05:16:22.204Z,6.73
2024-02-29T05:18:49.188Z,6.77
2024-02-29T05:21:15.732Z,6.77
2024-02-29T05:23:42.233Z,6.77
2024-02-29T05:26:09.166Z,6.77
2024-02-29T05:28:35.736Z,6.77
2024-02-29T05:31:04.520Z,6.78
2024-02-29T05:33:31.208Z,6.81
2024-02-29T05:35:57.851Z,6.82
2024-02-29T05:38:24.338Z,6.83
2024-02-29T05:40:51.938Z,6.83
2024-02-29T05:43:18.584Z,6.83
2024-02-29T05:45:45.130Z,6.84
2024-02-29T05:48:11.782Z,6.84
2024-02-29T05:50:38.342Z,6.84
2024-02-29T05:53:05.347Z,6.84
2024-02-29T05:55:34.554Z,6.85
2024-02-29T05:58:01.212Z,6.86
2024-02-29T06:00:27.779Z,6.87
2024-02-29T06:02:54.345Z,6.88
2024-02-29T06:05:21.278Z,6.89
2024-02-29T06:07:47.935Z,6.89
2024-02-29T06:10:14.710Z,6.89
2024-02-29T06:12:41.601Z,6.90
2024-02-29T06:15:11.203Z,6.91
2024-02-29T06:17:39.399Z,6.93
2024-02-29T06:20:11.443Z,6.93
2024-02-29T06:22:40.676Z,6.94
2024-02-29T06:25:09.967Z,6.95
2024-02-29T06:27:37.394Z,6.98
2024-02-29T06:30:05.411Z,6.98
2024-02-29T06:32:32.126Z,6.99
2024-02-29T06:34:58.751Z,7.01
2024-02-29T06:37:25.224Z,7.02
2024-02-29T06:39:51.841Z,7.02
2024-02-29T06:42:18.736Z,7.03
2024-02-29T06:44:45.421Z,7.04
2024-02-29T06:47:11.962Z,7.05
2024-02-29T06:49:38.545Z,7.07
2024-02-29T06:52:05.463Z,7.09
2024-02-29T06:54:32.008Z,7.10
2024-02-29T06:56:58.574Z,7.12
2024-02-29T06:59:26.576Z,7.14
2024-02-29T07:01:53.205Z,7.17
2024-02-29T07:04:19.945Z,7.17
2024-02-29T07:06:46.723Z,7.19
2024-02-29T07:09:13.276Z,7.22
2024-02-29T07:11:41.667Z,7.23
2024-02-29T07:14:08.347Z,7.26
2024-02-29T07:16:37.105Z,7.26
2024-02-29T07:19:05.166Z,7.28
2024-02-29T07:21:33.253Z,7.29
2024-02-29T07:23:59.870Z,7.31
2024-02-29T07:26:27.296Z,7.33
2024-02-29T07:28:53.826Z,7.33
2024-02-29T07:31:21.422Z,7.35
2024-02-29T07:33:48.130Z,7.42
2024-02-29T07:36:14.719Z,7.41
2024-02-29T07:38:41.292Z,7.41
2024-02-29T07:41:07.781Z,7.43
2024-02-29T07:43:34.741Z,7.45
2024-02-29T07:46:01.470Z,7.47
2024-02-29T07:48:30.615Z,7.49
2024-02-29T07:50:57.316Z,7.50
2024-02-29T07:53:23.894Z,7.53
2024-02-29T07:55:50.563Z,7.54
2024-02-29T07:58:17.217Z,7.55
2024-02-29T08:00:47.729Z,7.57
2024-02-29T08:03:14.237Z,7.60
2024-02-29T08:05:40.872Z,7.62
2024-02-29T08:08:09.059Z,7.64
2024-02-29T08:10:35.586Z,7.68
2024-02-29T08:13:02.314Z,7.70
2024-02-29T08:15:28.850Z,7.72
2024-02-29T08:17:55.510Z,7.75
2024-02-29T08:20:24.814Z,7.78
2024-02-29T08:22:55.147Z,7.81
2024-02-29T08:25:27.223Z,7.84
2024-02-29T08:27:54.388Z,7.87
2024-02-29T08:30:21.457Z,7.89
2024-02-29T08:32:49.879Z,7.91
2024-02-29T08:35:17.440Z,7.93
2024-02-29T08:37:45.211Z,7.98
2024-02-29T08:40:12.162Z,7.99
2024-02-29T08:42:39.301Z,8.03
2024-02-29T08:45:07.995Z,8.05
2024-02-29T08:47:34.542Z,8.01
2024-02-29T08:50:01.055Z,7.99
2024-02-29T08:52:27.652Z,7.98
2024-02-29T08:54:54.263Z,8.01
2024-02-29T08:57:20.911Z,7.99
2024-02-29T08:59:47.436Z,7.99
2024-02-29T09:02:14.172Z,8.01
2024-02-29T09:04:40.799Z,8.00
2024-02-29T09:07:07.276Z,8.02
2024-02-29T09:09:37.743Z,8.05
2024-02-29T09:12:07.523Z,8.06
2024-02-29T09:14:34.907Z,8.07
2024-02-29T09:17:01.760Z,8.08
2024-02-29T09:19:28.348Z,8.08
2024-02-29T09:21:55.022Z,8.08
2024-02-29T09:24:22.696Z,8.08
2024-02-29T09:26:50.060Z,8.05
2024-02-29T09:29:16.631Z,8.06
2024-02-29T09:31:44.075Z,8.11
2024-02-29T09:34:10.816Z,8.13
2024-02-29T09:36:38.458Z,8.16
2024-02-29T09:39:08.112Z,8.14
2024-02-29T09:41:58.486Z,8.17
2024-02-29T09:44:21.648Z,8.18
2024-02-29T09:46:51.635Z,8.19
2024-02-29T09:49:18.440Z,8.20
2024-02-29T09:51:45.872Z,8.23
2024-02-29T09:54:18.999Z,8.25
2024-02-29T09:56:49.028Z,8.26
2024-02-29T09:59:20.153Z,8.28
2024-02-29T10:01:50.525Z,8.32
2024-02-29T10:04:17.915Z,8.35
2024-02-29T10:06:44.765Z,8.40
2024-02-29T10:09:11.542Z,8.44
2024-02-29T10:11:42.216Z,8.50
2024-02-29T10:14:27.727Z,8.55
2024-02-29T10:16:56.098Z,8.60
2024-02-29T10:19:24.026Z,8.60
2024-02-29T10:21:52.341Z,8.61
2024-02-29T10:24:20.451Z,8.63
2024-02-29T10:26:47.466Z,8.68
2024-02-29T10:29:18.137Z,8.70
2024-02-29T10:31:44.931Z,8.76
2024-02-29T10:34:12.064Z,8.77
2024-02-29T10:36:39.752Z,8.78
2024-02-29T10:39:06.523Z,8.74
2024-02-29T10:41:33.785Z,8.77
2024-02-29T10:44:07.332Z,8.81
2024-02-29T10:46:36.921Z,8.83
2024-02-29T10:49:08.345Z,8.85
2024-02-29T10:51:44.196Z,8.89
2024-02-29T10:54:20.712Z,8.87
2024-02-29T10:56:49.327Z,8.85
2024-02-29T10:59:20.283Z,8.84
2024-02-29T11:01:48.590Z,8.83
2024-02-29T11:04:18.334Z,8.80
2024-02-29T11:06:47.812Z,8.82
2024-02-29T11:09:17.183Z,8.82
2024-02-29T11:11:46.398Z,8.84
2024-02-29T11:14:14.207Z,8.86
2024-02-29T11:16:44.888Z,8.88
2024-02-29T11:19:15.974Z,8.87
2024-02-29T11:21:42.952Z,8.89
2024-02-29T11:24:10.850Z,8.89
2024-02-29T11:26:38.420Z,8.86
2024-02-29T11:29:19.941Z,8.88
2024-02-29T11:31:56.684Z,8.90
2024-02-29T11:34:23.540Z,8.91
2024-02-29T11:36:51.606Z,8.94
2024-02-29T11:39:21.965Z,8.94
2024-02-29T11:42:02.073Z,8.92
2024-02-29T11:44:28.608Z,8.98
2024-02-29T11:46:55.470Z,8.99
2024-02-29T11:49:24.090Z,9.00
2024-02-29T11:51:52.204Z,9.02
2024-02-29T11:54:19.905Z,9.07
2024-02-29T11:56:48.329Z,9.11
2024-02-29T11:59:16.868Z,9.10
2024-02-29T12:01:45.187Z,9.10
2024-02-29T12:04:12.497Z,9.12
2024-02-29T12:06:41.052Z,9.15
2024-02-29T12:09:13.926Z,9.18
2024-02-29T12:11:43.006Z,9.18
2024-02-29T12:14:09.906Z,9.19
2024-02-29T12:16:37.810Z,9.23
2024-02-29T12:19:04.701Z,9.26
2024-02-29T12:21:31.398Z,9.32
2024-02-29T12:23:58.200Z,9.35
2024-02-29T12:26:26.265Z,9.40
2024-02-29T12:28:53.183Z,9.41
2024-02-29T12:31:20.279Z,9.37
2024-02-29T12:33:48.074Z,9.39
2024-02-29T12:36:20.092Z,9.43
2024-02-29T12:38:47.517Z,9.41
2024-02-29T12:41:16.898Z,9.43
2024-02-29T12:43:49.538Z,9.43
2024-02-29T12:46:17.616Z,9.43
2024-02-29T12:48:45.022Z,9.43
2024-02-29T12:51:11.762Z,9.47
2024-02-29T12:53:38.536Z,9.43
2024-02-29T12:56:06.304Z,9.40
2024-02-29T12:58:33.406Z,9.44
2024-02-29T13:01:01.000Z,9.44
2024-02-29T13:03:28.428Z,9.41
2024-02-29T13:05:55.773Z,9.41
2024-02-29T13:08:23.364Z,9.43
2024-02-29T13:10:50.818Z,9.44
2024-02-29T13:13:18.772Z,9.47
2024-02-29T13:15:45.658Z,9.43
2024-02-29T13:18:12.290Z,9.41
2024-02-29T13:20:38.895Z,9.43
2024-02-29T13:23:05.431Z,9.44
2024-02-29T13:25:32.151Z,9.45
2024-02-29T13:27:59.143Z,9.46
2024-02-29T13:30:25.835Z,9.46
2024-02-29T13:32:52.467Z,9.49
2024-02-29T13:35:19.098Z,9.50
2024-02-29T13:37:47.773Z,9.46
2024-02-29T13:40:14.515Z,9.45
2024-02-29T13:42:43.432Z,9.40
2024-02-29T13:45:11.679Z,9.38
2024-02-29T13:47:52.285Z,9.38
2024-02-29T13:50:21.194Z,9.34
2024-02-29T13:52:48.648Z,9.34
2024-02-29T13:55:15.619Z,9.31
2024-02-29T13:57:42.363Z,9.29
2024-02-29T14:00:09.958Z,9.29
2024-02-29T14:02:36.799Z,9.26
2024-02-29T14:05:04.590Z,9.28
2024-02-29T14:07:31.124Z,9.31
2024-02-29T14:09:57.814Z,9.33
2024-02-29T14:12:26.376Z,9.33
2024-02-29T14:14:53.171Z,9.33
2024-02-29T14:17:20.778Z,9.36
2024-02-29T14:19:47.353Z,9.42
2024-02-29T14:22:15.288Z,9.48
2024-02-29T14:24:42.192Z,9.48
2024-02-29T14:27:09.266Z,9.49
2024-02-29T14:29:35.955Z,9.49
2024-02-29T14:32:02.888Z,9.48
2024-02-29T14:34:29.786Z,9.51
2024-02-29T14:36:56.827Z,9.52
2024-02-29T14:39:23.452Z,9.49
2024-02-29T14:41:50.116Z,9.46
2024-02-29T14:44:17.077Z,9.48
2024-02-29T14:46:44.283Z,9.49
2024-02-29T14:49:11.582Z,9.52
2024-02-29T14:51:38.161Z,9.54
2024-02-29T14:54:05.319Z,9.52
2024-02-29T14:56:35.193Z,9.49
2024-02-29T14:59:01.834Z,9.46
2024-02-29T15:01:28.795Z,9.41
2024-02-29T15:03:55.575Z,9.43
2024-02-29T15:06:22.292Z,9.49
2024-02-29T15:08:49.026Z,9.52
2024-02-29T15:11:15.603Z,9.55
2024-02-29T15:13:42.321Z,9.53
2024-02-29T15:16:09.289Z,9.55
2024-02-29T15:18:36.516Z,9.55
2024-02-29T15:21:03.063Z,9.52
2024-02-29T15:23:29.573Z,9.52
2024-02-29T15:25:56.785Z,9.53
2024-02-29T15:28:25.792Z,9.49
2024-02-29T15:30:52.851Z,9.49
2024-02-29T15:33:21.488Z,9.49
2024-02-29T15:35:48.683Z,9.49
2024-02-29T15:38:18.398Z,9.50
2024-02-29T15:40:47.788Z,9.52
2024-02-29T15:43:15.492Z,9.46
2024-02-29T15:45:42.272Z,9.44
2024-02-29T15:48:09.173Z,9.37
2024-02-29T15:50:35.839Z,9.36
2024-02-29T15:53:02.483Z,9.34
2024-02-29T15:55:29.457Z,9.32
2024-02-29T15:57:56.254Z,9.30
2024-02-29T16:00:25.736Z,9.28
2024-02-29T16:02:52.541Z,9.26
2024-02-29T16:05:19.548Z,9.27
2024-02-29T16:07:46.128Z,9.25
2024-02-29T16:10:13.065Z,9.24
2024-02-29T16:12:40.634Z,9.23
2024-02-29T16:15:07.929Z,9.22
2024-02-29T16:17:36.278Z,9.23
2024-02-29T16:20:03.355Z,9.24
2024-02-29T16:22:29.918Z,9.24
2024-02-29T16:24:56.636Z,9.22
2024-02-29T16:27:23.409Z,9.21
2024-02-29T16:29:49.940Z,9.19
2024-02-29T16:32:16.486Z,9.20
2024-02-29T16:34:43.057Z,9.19
2024-02-29T16:37:09.603Z,9.18
2024-02-29T16:39:36.436Z,9.22
2024-02-29T16:42:03.051Z,9.22
2024-02-29T16:44:30.708Z,9.23
2024-02-29T16:46:57.450Z,9.22
2024-02-29T16:49:24.137Z,9.23
2024-02-29T16:51:51.208Z,9.21
2024-02-29T16:54:17.744Z,9.19
2024-02-29T16:56:46.115Z,9.19
2024-02-29T16:59:13.316Z,9.18
2024-02-29T17:01:41.674Z,9.15
2024-02-29T17:04:08.478Z,9.18
2024-02-29T17:06:36.500Z,9.15
2024-02-29T17:09:04.162Z,9.16
2024-02-29T17:11:30.822Z,9.15
2024-02-29T17:13:57.721Z,9.13
2024-02-29T17:18:50.706Z,9.10
2024-02-29T17:21:18.515Z,9.06
2024-02-29T17:23:45.037Z,9.08
2024-02-29T17:26:18.270Z,9.07
2024-02-29T17:28:45.213Z,9.06
2024-02-29T17:31:11.845Z,9.04
2024-02-29T17:33:39.555Z,9.04
2024-02-29T17:36:07.356Z,9.05
2024-02-29T17:38:34.612Z,9.03
2024-02-29T17:41:01.113Z,9.03
2024-02-29T17:43:27.913Z,9.03
2024-02-29T17:45:54.624Z,9.03
2024-02-29T17:48:21.173Z,9.03
2024-02-29T17:50:47.760Z,8.93
2024-02-29T17:53:14.313Z,8.92
2024-02-29T17:55:40.835Z,8.91
2024-02-29T17:58:07.385Z,8.90
2024-02-29T18:00:34.520Z,8.89
2024-02-29T18:03:01.986Z,8.89
2024-02-29T18:05:28.604Z,8.90
2024-02-29T18:07:59.142Z,8.93
2024-02-29T18:10:29.966Z,8.91
2024-02-29T18:12:58.573Z,8.89
2024-02-29T18:15:25.318Z,8.89
2024-02-29T18:17:52.101Z,8.89
2024-02-29T18:20:18.814Z,8.87
2024-02-29T18:22:45.598Z,8.87
2024-02-29T18:25:12.924Z,8.85
2024-02-29T18:27:39.528Z,8.85
2024-02-29T18:30:06.690Z,8.85
2024-02-29T18:32:33.659Z,8.83
2024-02-29T18:35:02.050Z,8.85
2024-02-29T18:37:28.709Z,8.87
2024-02-29T18:39:55.335Z,8.88
2024-02-29T18:42:21.928Z,8.87
2024-02-29T18:44:48.898Z,8.85
2024-02-29T18:47:15.686Z,8.88
2024-02-29T18:49:42.278Z,8.87
2024-02-29T18:52:09.953Z,8.84
2024-02-29T18:54:36.669Z,8.83
2024-02-29T18:57:03.271Z,8.84
2024-02-29T18:59:30.786Z,8.85
2024-02-29T19:01:57.597Z,8.85
2024-02-29T19:04:24.583Z,8.84
2024-02-29T19:06:51.491Z,8.83
2024-02-29T19:09:18.113Z,8.82
2024-02-29T19:11:45.203Z,8.83
2024-02-29T19:14:12.249Z,8.83
2024-02-29T19:16:41.388Z,8.83
2024-02-29T19:19:10.363Z,8.84
2024-02-29T19:21:40.096Z,8.84
2024-02-29T19:24:08.523Z,8.83
2024-02-29T19:26:35.673Z,8.81
2024-02-29T19:29:02.186Z,8.81
2024-02-29T19:31:28.685Z,8.82
2024-02-29T19:33:55.245Z,8.80
2024-02-29T19:36:24.401Z,8.80
2024-02-29T19:38:52.461Z,8.79
2024-02-29T19:41:19.141Z,8.80
2024-02-29T19:43:45.645Z,8.79
2024-02-29T19:46:12.312Z,8.79
2024-02-29T19:48:38.899Z,8.79
2024-02-29T19:51:07.947Z,8.79
2024-02-29T19:53:36.841Z,8.79
2024-02-29T19:56:03.607Z,8.78
2024-02-29T19:58:30.207Z,8.77
2024-02-29T20:01:01.822Z,8.75
2024-02-29T20:03:29.398Z,8.76
2024-02-29T20:05:57.290Z,8.74
2024-02-29T20:08:25.057Z,8.75
2024-02-29T20:10:51.700Z,8.73
2024-02-29T20:13:18.354Z,8.74
2024-02-29T20:15:44.953Z,8.74
2024-02-29T20:18:11.617Z,8.73
2024-02-29T20:20:38.502Z,8.75
2024-02-29T20:23:05.156Z,8.76
2024-02-29T20:25:31.861Z,8.75
2024-02-29T20:27:59.433Z,8.74
2024-02-29T20:30:28.060Z,8.76
2024-02-29T20:32:54.944Z,8.76
2024-02-29T20:35:21.674Z,8.76
2024-02-29T20:37:48.276Z,8.74
2024-02-29T20:40:15.089Z,8.76
2024-02-29T20:42:42.015Z,8.76
2024-02-29T20:45:08.908Z,8.76
2024-02-29T20:47:35.483Z,8.75
2024-02-29T20:50:02.915Z,8.74
2024-02-29T20:52:29.698Z,8.74
2024-02-29T20:54:56.515Z,8.76
2024-02-29T20:57:24.702Z,8.77
2024-02-29T20:59:51.511Z,8.77
2024-02-29T21:02:18.131Z,8.78
2024-02-29T21:04:45.359Z,8.77
2024-02-29T21:07:12.042Z,8.77
2024-02-29T21:09:38.697Z,8.77
2024-02-29T21:12:05.470Z,8.77
2024-02-29T21:14:32.037Z,8.77
2024-02-29T21:16:58.517Z,8.77
2024-02-29T21:19:25.222Z,8.76
2024-02-29T21:21:51.874Z,8.77
2024-02-29T21:24:18.480Z,8.79
2024-02-29T21:26:44.983Z,8.77
2024-02-29T21:29:11.488Z,8.76
2024-02-29T21:31:37.987Z,8.76
2024-02-29T21:34:05.320Z,8.74
2024-02-29T21:36:32.131Z,8.75
2024-02-29T21:38:58.585Z,8.76
2024-02-29T21:41:25.191Z,8.74
2024-02-29T21:43:52.095Z,8.73
2024-02-29T21:46:18.653Z,8.73
2024-02-29T21:48:48.263Z,8.73
2024-02-29T21:51:19.229Z,8.73
2024-02-29T21:53:46.428Z,8.73
2024-02-29T21:56:13.322Z,8.74
2024-02-29T21:58:41.852Z,8.71
2024-02-29T22:01:08.850Z,8.70
2024-02-29T22:03:35.795Z,8.70
2024-02-29T22:06:02.322Z,8.68
2024-02-29T22:08:28.966Z,8.65
2024-02-29T22:10:55.586Z,8.66
2024-02-29T22:13:22.233Z,8.66
2024-02-29T22:15:49.106Z,8.66
2024-02-29T22:18:16.152Z,8.65
2024-02-29T22:20:46.776Z,8.63
2024-02-29T22:23:14.324Z,8.60
2024-02-29T22:25:41.133Z,8.58
2024-02-29T22:28:07.753Z,8.55
2024-02-29T22:30:34.336Z,8.56
2024-02-29T22:33:00.973Z,8.56
2024-02-29T22:35:27.603Z,8.56
2024-02-29T22:37:57.166Z,8.57
2024-02-29T22:40:23.771Z,8.57
2024-02-29T22:42:50.383Z,8.56
2024-02-29T22:45:16.928Z,8.54
2024-02-29T22:47:44.583Z,8.55
2024-02-29T22:50:11.689Z,8.56
2024-02-29T22:52:38.416Z,8.57
2024-02-29T22:55:06.741Z,8.57
2024-02-29T22:57:34.456Z,8.57
2024-02-29T23:00:01.752Z,8.55
2024-02-29T23:02:29.094Z,8.55
2024-02-29T23:04:55.761Z,8.56
2024-02-29T23:07:22.719Z,8.54
2024-02-29T23:09:49.816Z,8.55
2024-02-29T23:12:17.267Z,8.54
2024-02-29T23:14:45.173Z,8.52
2024-02-29T23:17:11.811Z,8.52
2024-02-29T23:19:38.263Z,8.49
2024-02-29T23:22:04.850Z,8.48
2024-02-29T23:24:31.529Z,8.49
2024-02-29T23:26:58.004Z,8.46
2024-02-29T23:29:24.534Z,8.45
2024-02-29T23:31:51.129Z,8.43
2024-02-29T23:34:19.007Z,8.43
2024-02-29T23:36:48.567Z,8.42
2024-02-29T23:39:15.195Z,8.41
2024-02-29T23:41:41.765Z,8.41
2024-02-29T23:44:09.401Z,8.40
2024-02-29T23:46:35.935Z,8.39
2024-02-29T23:49:02.686Z,8.40
2024-02-29T23:51:29.304Z,8.40
2024-02-29T23:53:55.839Z,8.42
2024-02-29T23:56:22.313Z,8.42
2024-02-29T23:58:48.859Z,8.42
